Terminal Aerodrome Forecast
Issued by NWS

Home | Current Version | Previous Version | Text Only | Print | Product List | Glossary On
Versions: 1 2 3 4 5 6 7 8 9 10 11 12
000
FTUS43 KSGF 252320
TAFBBG
TAF
KBBG 252320Z 2600/2624 16010KT P6SM FEW120 BKN200
     FM260600 16006KT P6SM VCTS OVC050CB
     FM261000 17007KT P6SM -SHRA VCTS OVC030CB
     FM261500 26007KT 3SM SHRA VCTS OVC015CB
     FM261800 29006KT 4SM SHRA OVC015
     FM262000 32007KT 3SM SHRA VCTS OVC008CB=

USA.gov is the U.S. government's official web portal to all federal, state and local government web resources and services.